LGPZ/PVK METAR and TAF weather

Enter ICAO airport designator
Station Type Date Time Source
LGPZ METAR 2019/12/06 23:50 UTC NOAA

LGPZ 062350Z 07004KT 9999 BKN025 14/14 Q1021 RERA


Station Type Date Time Source
LGPZ Decoded METAR 2019/12/06 23:50 UTC NOAA

Aktion Airport , Greece (LGPZ) 38-37N 020-46E 4M
Dec 06, 2019 - 06:50 PM EST / 2019.12.06 2350 UTC
Wind: from the ENE (070 degrees) at 5 MPH (4 KT):0
Visibility: greater than 7 mile(s):0
Sky conditions: mostly cloudy
Temperature: 57 F (14 C)
Dew Point: 57 F (14 C)
Relative Humidity: 100%
Pressure (altimeter): 30.15 in. Hg (1021 hPa)
ob: LGPZ 062350Z 07004KT 9999 BKN025 14/14 Q1021 RERA
cycle: 0

Station Type Date Time Source
LGPZ TAF 2019/12/06 18:12 UTC NOAA

TAF TAF LGPZ 061700Z 0618/0718 06010KT 9999 FEW015 BKN025 BKN080
BECMG 0710/0712 28012KT
TEMPO 0621/0709 5000 RA FEW018TCU BKN020 BKN070 PROB40
TEMPO 0621/0709 3000 TSRA SCT015 FEW018CB BKN025 BKN070

Example: see airport list